sensor_id;sensor_type;location;lat;lon;timestamp;P1;durP1;ratioP1;P2;durP2;ratioP2
7657;SDS011;8462;53.156;8.220;2023-07-29T00:01:35;14.73;;;7.97;;
7657;SDS011;8462;53.156;8.220;2023-07-29T00:04:03;12.77;;;7.50;;
7657;SDS011;8462;53.156;8.220;2023-07-29T00:06:31;13.33;;;8.70;;
7657;SDS011;8462;53.156;8.220;2023-07-29T00:08:57;12.47;;;7.87;;
7657;SDS011;8462;53.156;8.220;2023-07-29T00:11:24;12.23;;;7.37;;
7657;SDS011;8462;53.156;8.220;2023-07-29T00:13:51;15.57;;;8.93;;
7657;SDS011;8462;53.156;8.220;2023-07-29T00:16:18;11.47;;;7.33;;
7657;SDS011;8462;53.156;8.220;2023-07-29T00:18:47;13.93;;;7.93;;
7657;SDS011;8462;53.156;8.220;2023-07-29T00:21:15;12.27;;;7.00;;
7657;SDS011;8462;53.156;8.220;2023-07-29T00:23:42;11.83;;;7.57;;
7657;SDS011;8462;53.156;8.220;2023-07-29T00:26:09;12.10;;;7.67;;
7657;SDS011;8462;53.156;8.220;2023-07-29T00:28:36;12.57;;;8.07;;
7657;SDS011;8462;53.156;8.220;2023-07-29T00:31:04;11.57;;;8.03;;
7657;SDS011;8462;53.156;8.220;2023-07-29T00:33:32;11.37;;;6.83;;
7657;SDS011;8462;53.156;8.220;2023-07-29T00:35:59;11.50;;;7.30;;
7657;SDS011;8462;53.156;8.220;2023-07-29T00:38:29;16.63;;;8.30;;
7657;SDS011;8462;53.156;8.220;2023-07-29T00:40:56;12.50;;;7.37;;
7657;SDS011;8462;53.156;8.220;2023-07-29T00:43:24;19.23;;;8.43;;
7657;SDS011;8462;53.156;8.220;2023-07-29T00:45:51;14.00;;;8.50;;
7657;SDS011;8462;53.156;8.220;2023-07-29T00:48:19;14.63;;;7.67;;
7657;SDS011;8462;53.156;8.220;2023-07-29T00:50:46;15.47;;;7.93;;
7657;SDS011;8462;53.156;8.220;2023-07-29T00:53:13;14.37;;;7.70;;
7657;SDS011;8462;53.156;8.220;2023-07-29T00:55:42;14.57;;;8.10;;
7657;SDS011;8462;53.156;8.220;2023-07-29T00:58:09;15.23;;;7.87;;
7657;SDS011;8462;53.156;8.220;2023-07-29T01:00:36;14.03;;;7.83;;
7657;SDS011;8462;53.156;8.220;2023-07-29T01:03:03;15.50;;;8.03;;
7657;SDS011;8462;53.156;8.220;2023-07-29T01:05:32;13.03;;;7.80;;
7657;SDS011;8462;53.156;8.220;2023-07-29T01:08:05;12.67;;;8.07;;
7657;SDS011;8462;53.156;8.220;2023-07-29T01:10:40;15.80;;;8.47;;
7657;SDS011;8462;53.156;8.220;2023-07-29T01:13:16;15.63;;;8.43;;
7657;SDS011;8462;53.156;8.220;2023-07-29T01:15:48;15.27;;;7.87;;
7657;SDS011;8462;53.156;8.220;2023-07-29T01:18:21;15.43;;;8.30;;
7657;SDS011;8462;53.156;8.220;2023-07-29T01:20:51;15.40;;;8.53;;
7657;SDS011;8462;53.156;8.220;2023-07-29T01:23:25;14.37;;;8.87;;
7657;SDS011;8462;53.156;8.220;2023-07-29T01:25:55;19.40;;;10.07;;
7657;SDS011;8462;53.156;8.220;2023-07-29T01:28:21;20.27;;;10.90;;
7657;SDS011;8462;53.156;8.220;2023-07-29T01:30:51;18.40;;;9.50;;
7657;SDS011;8462;53.156;8.220;2023-07-29T01:33:25;19.10;;;9.83;;
7657;SDS011;8462;53.156;8.220;2023-07-29T01:35:54;17.70;;;9.80;;
7657;SDS011;8462;53.156;8.220;2023-07-29T01:38:30;17.90;;;9.63;;
7657;SDS011;8462;53.156;8.220;2023-07-29T01:41:00;19.10;;;10.47;;
7657;SDS011;8462;53.156;8.220;2023-07-29T01:43:28;21.27;;;10.33;;
7657;SDS011;8462;53.156;8.220;2023-07-29T01:45:55;20.63;;;10.63;;
7657;SDS011;8462;53.156;8.220;2023-07-29T01:48:22;18.87;;;10.27;;
7657;SDS011;8462;53.156;8.220;2023-07-29T01:50:49;16.13;;;10.10;;
7657;SDS011;8462;53.156;8.220;2023-07-29T01:53:16;19.77;;;10.57;;
7657;SDS011;8462;53.156;8.220;2023-07-29T01:55:45;19.83;;;10.63;;
7657;SDS011;8462;53.156;8.220;2023-07-29T01:58:12;16.77;;;9.87;;
7657;SDS011;8462;53.156;8.220;2023-07-29T02:00:39;16.73;;;9.87;;
7657;SDS011;8462;53.156;8.220;2023-07-29T02:03:06;16.30;;;9.87;;
7657;SDS011;8462;53.156;8.220;2023-07-29T02:05:33;19.97;;;9.57;;
7657;SDS011;8462;53.156;8.220;2023-07-29T02:08:04;16.23;;;9.50;;
7657;SDS011;8462;53.156;8.220;2023-07-29T02:10:31;17.70;;;9.77;;
7657;SDS011;8462;53.156;8.220;2023-07-29T02:13:00;17.67;;;9.90;;
7657;SDS011;8462;53.156;8.220;2023-07-29T02:15:27;14.97;;;9.43;;
7657;SDS011;8462;53.156;8.220;2023-07-29T02:17:54;16.07;;;9.70;;
7657;SDS011;8462;53.156;8.220;2023-07-29T02:20:21;14.10;;;9.63;;
7657;SDS011;8462;53.156;8.220;2023-07-29T02:22:49;14.00;;;9.27;;
7657;SDS011;8462;53.156;8.220;2023-07-29T02:25:16;14.00;;;9.37;;
7657;SDS011;8462;53.156;8.220;2023-07-29T02:27:43;15.23;;;9.70;;
7657;SDS011;8462;53.156;8.220;2023-07-29T02:30:12;14.50;;;8.80;;
7657;SDS011;8462;53.156;8.220;2023-07-29T02:32:39;14.70;;;9.00;;
7657;SDS011;8462;53.156;8.220;2023-07-29T02:35:06;16.13;;;9.60;;
7657;SDS011;8462;53.156;8.220;2023-07-29T02:37:33;12.90;;;9.33;;
7657;SDS011;8462;53.156;8.220;2023-07-29T02:40:00;16.03;;;10.30;;
7657;SDS011;8462;53.156;8.220;2023-07-29T02:42:28;15.83;;;10.03;;
7657;SDS011;8462;53.156;8.220;2023-07-29T02:44:55;14.70;;;10.13;;
7657;SDS011;8462;53.156;8.220;2023-07-29T02:47:24;14.67;;;10.10;;
7657;SDS011;8462;53.156;8.220;2023-07-29T02:49:50;17.70;;;10.03;;
7657;SDS011;8462;53.156;8.220;2023-07-29T02:52:17;13.33;;;9.40;;
7657;SDS011;8462;53.156;8.220;2023-07-29T02:54:44;14.40;;;9.27;;
7657;SDS011;8462;53.156;8.220;2023-07-29T02:57:13;14.73;;;9.57;;
7657;SDS011;8462;53.156;8.220;2023-07-29T02:59:40;13.47;;;9.43;;
7657;SDS011;8462;53.156;8.220;2023-07-29T03:02:07;15.07;;;10.07;;
7657;SDS011;8462;53.156;8.220;2023-07-29T03:04:35;15.83;;;10.93;;
7657;SDS011;8462;53.156;8.220;2023-07-29T03:07:02;15.37;;;9.60;;
7657;SDS011;8462;53.156;8.220;2023-07-29T03:09:30;15.63;;;9.97;;
7657;SDS011;8462;53.156;8.220;2023-07-29T03:11:58;15.70;;;10.13;;
7657;SDS011;8462;53.156;8.220;2023-07-29T03:14:25;17.93;;;10.23;;
7657;SDS011;8462;53.156;8.220;2023-07-29T03:16:52;15.50;;;10.73;;
7657;SDS011;8462;53.156;8.220;2023-07-29T03:19:19;18.20;;;10.37;;
7657;SDS011;8462;53.156;8.220;2023-07-29T03:21:49;18.27;;;10.33;;
7657;SDS011;8462;53.156;8.220;2023-07-29T03:24:16;15.33;;;10.60;;
7657;SDS011;8462;53.156;8.220;2023-07-29T03:26:42;16.27;;;10.60;;
7657;SDS011;8462;53.156;8.220;2023-07-29T03:29:09;16.13;;;10.20;;
7657;SDS011;8462;53.156;8.220;2023-07-29T03:31:36;16.47;;;10.50;;
7657;SDS011;8462;53.156;8.220;2023-07-29T03:34:04;16.70;;;10.30;;
7657;SDS011;8462;53.156;8.220;2023-07-29T03:36:32;17.53;;;12.13;;
7657;SDS011;8462;53.156;8.220;2023-07-29T03:39:00;14.23;;;10.53;;
7657;SDS011;8462;53.156;8.220;2023-07-29T03:41:28;15.80;;;10.60;;
7657;SDS011;8462;53.156;8.220;2023-07-29T03:43:55;17.60;;;10.20;;
7657;SDS011;8462;53.156;8.220;2023-07-29T03:46:22;16.57;;;10.50;;
7657;SDS011;8462;53.156;8.220;2023-07-29T03:48:50;16.63;;;10.87;;
7657;SDS011;8462;53.156;8.220;2023-07-29T03:51:16;15.70;;;11.17;;
7657;SDS011;8462;53.156;8.220;2023-07-29T03:53:43;14.47;;;10.33;;
7657;SDS011;8462;53.156;8.220;2023-07-29T03:56:12;18.50;;;10.53;;
7657;SDS011;8462;53.156;8.220;2023-07-29T03:58:39;16.43;;;10.43;;
7657;SDS011;8462;53.156;8.220;2023-07-29T04:01:06;13.47;;;9.60;;
7657;SDS011;8462;53.156;8.220;2023-07-29T04:03:33;13.93;;;9.77;;
7657;SDS011;8462;53.156;8.220;2023-07-29T04:06:00;14.20;;;10.23;;
7657;SDS011;8462;53.156;8.220;2023-07-29T04:08:27;15.13;;;9.70;;
7657;SDS011;8462;53.156;8.220;2023-07-29T04:10:54;13.77;;;9.77;;
7657;SDS011;8462;53.156;8.220;2023-07-29T04:13:22;16.50;;;10.60;;
7657;SDS011;8462;53.156;8.220;2023-07-29T04:15:49;17.80;;;10.23;;
7657;SDS011;8462;53.156;8.220;2023-07-29T04:18:16;16.27;;;10.40;;
7657;SDS011;8462;53.156;8.220;2023-07-29T04:20:44;14.47;;;9.77;;
7657;SDS011;8462;53.156;8.220;2023-07-29T04:23:11;15.63;;;10.53;;
7657;SDS011;8462;53.156;8.220;2023-07-29T04:25:38;16.77;;;11.60;;
7657;SDS011;8462;53.156;8.220;2023-07-29T04:28:05;15.93;;;10.47;;
7657;SDS011;8462;53.156;8.220;2023-07-29T04:30:33;16.07;;;11.07;;
7657;SDS011;8462;53.156;8.220;2023-07-29T04:33:00;19.43;;;11.83;;
7657;SDS011;8462;53.156;8.220;2023-07-29T04:35:27;14.90;;;10.77;;
7657;SDS011;8462;53.156;8.220;2023-07-29T04:37:54;17.47;;;11.00;;
7657;SDS011;8462;53.156;8.220;2023-07-29T04:40:21;17.97;;;11.23;;
7657;SDS011;8462;53.156;8.220;2023-07-29T04:42:48;20.80;;;11.53;;
7657;SDS011;8462;53.156;8.220;2023-07-29T04:45:15;17.27;;;11.57;;
7657;SDS011;8462;53.156;8.220;2023-07-29T04:47:44;17.50;;;10.27;;
7657;SDS011;8462;53.156;8.220;2023-07-29T04:50:10;18.77;;;11.73;;
7657;SDS011;8462;53.156;8.220;2023-07-29T04:52:37;15.63;;;10.70;;
7657;SDS011;8462;53.156;8.220;2023-07-29T04:55:04;16.53;;;11.43;;
7657;SDS011;8462;53.156;8.220;2023-07-29T04:57:32;18.77;;;11.37;;
7657;SDS011;8462;53.156;8.220;2023-07-29T05:00:00;16.33;;;11.33;;
7657;SDS011;8462;53.156;8.220;2023-07-29T05:02:27;17.17;;;10.90;;
7657;SDS011;8462;53.156;8.220;2023-07-29T05:04:58;18.87;;;11.00;;
7657;SDS011;8462;53.156;8.220;2023-07-29T05:07:24;17.10;;;11.07;;
7657;SDS011;8462;53.156;8.220;2023-07-29T05:09:51;16.93;;;11.10;;
7657;SDS011;8462;53.156;8.220;2023-07-29T05:12:18;15.87;;;10.47;;
7657;SDS011;8462;53.156;8.220;2023-07-29T05:14:45;17.17;;;10.63;;
7657;SDS011;8462;53.156;8.220;2023-07-29T05:17:14;12.67;;;9.67;;
7657;SDS011;8462;53.156;8.220;2023-07-29T05:19:41;13.27;;;9.60;;
7657;SDS011;8462;53.156;8.220;2023-07-29T05:22:09;14.83;;;9.77;;
7657;SDS011;8462;53.156;8.220;2023-07-29T05:24:37;14.77;;;9.93;;
7657;SDS011;8462;53.156;8.220;2023-07-29T05:27:04;11.57;;;8.90;;
7657;SDS011;8462;53.156;8.220;2023-07-29T05:29:33;12.50;;;9.73;;
7657;SDS011;8462;53.156;8.220;2023-07-29T05:32:00;15.80;;;9.97;;
7657;SDS011;8462;53.156;8.220;2023-07-29T05:34:27;15.93;;;9.97;;
7657;SDS011;8462;53.156;8.220;2023-07-29T05:36:54;12.50;;;9.20;;
7657;SDS011;8462;53.156;8.220;2023-07-29T05:39:22;14.00;;;10.17;;
7657;SDS011;8462;53.156;8.220;2023-07-29T05:41:49;13.43;;;9.47;;
7657;SDS011;8462;53.156;8.220;2023-07-29T05:44:16;14.33;;;10.80;;
7657;SDS011;8462;53.156;8.220;2023-07-29T05:46:43;12.27;;;9.30;;
7657;SDS011;8462;53.156;8.220;2023-07-29T05:49:10;13.07;;;9.87;;
7657;SDS011;8462;53.156;8.220;2023-07-29T05:51:37;13.13;;;9.37;;
7657;SDS011;8462;53.156;8.220;2023-07-29T05:54:04;12.33;;;8.90;;
7657;SDS011;8462;53.156;8.220;2023-07-29T05:56:32;13.00;;;9.17;;
7657;SDS011;8462;53.156;8.220;2023-07-29T05:58:59;13.93;;;9.13;;
7657;SDS011;8462;53.156;8.220;2023-07-29T06:01:26;11.77;;;8.10;;
7657;SDS011;8462;53.156;8.220;2023-07-29T06:03:53;12.47;;;8.03;;
7657;SDS011;8462;53.156;8.220;2023-07-29T06:06:20;13.00;;;8.03;;
7657;SDS011;8462;53.156;8.220;2023-07-29T06:08:48;13.43;;;8.63;;
7657;SDS011;8462;53.156;8.220;2023-07-29T06:11:16;11.37;;;7.50;;
7657;SDS011;8462;53.156;8.220;2023-07-29T06:13:44;11.67;;;8.57;;
7657;SDS011;8462;53.156;8.220;2023-07-29T06:16:13;9.30;;;7.43;;
7657;SDS011;8462;53.156;8.220;2023-07-29T06:18:41;11.50;;;7.53;;
7657;SDS011;8462;53.156;8.220;2023-07-29T06:21:08;12.23;;;7.70;;
7657;SDS011;8462;53.156;8.220;2023-07-29T06:23:37;12.00;;;8.13;;
7657;SDS011;8462;53.156;8.220;2023-07-29T06:26:04;10.03;;;8.30;;
7657;SDS011;8462;53.156;8.220;2023-07-29T06:28:32;11.23;;;7.50;;
7657;SDS011;8462;53.156;8.220;2023-07-29T06:31:00;8.87;;;7.07;;
7657;SDS011;8462;53.156;8.220;2023-07-29T06:33:27;14.17;;;9.57;;
7657;SDS011;8462;53.156;8.220;2023-07-29T06:35:54;11.60;;;7.53;;
7657;SDS011;8462;53.156;8.220;2023-07-29T06:38:21;11.07;;;7.07;;
7657;SDS011;8462;53.156;8.220;2023-07-29T06:40:47;13.47;;;7.90;;
7657;SDS011;8462;53.156;8.220;2023-07-29T06:43:15;13.00;;;7.13;;
7657;SDS011;8462;53.156;8.220;2023-07-29T06:45:41;9.50;;;7.03;;
7657;SDS011;8462;53.156;8.220;2023-07-29T06:48:10;11.30;;;8.27;;
7657;SDS011;8462;53.156;8.220;2023-07-29T06:50:37;10.97;;;6.93;;
7657;SDS011;8462;53.156;8.220;2023-07-29T06:53:04;7.30;;;5.93;;
7657;SDS011;8462;53.156;8.220;2023-07-29T06:55:31;7.73;;;5.97;;
7657;SDS011;8462;53.156;8.220;2023-07-29T06:57:58;8.00;;;5.73;;
7657;SDS011;8462;53.156;8.220;2023-07-29T07:00:24;7.60;;;5.43;;
7657;SDS011;8462;53.156;8.220;2023-07-29T07:02:51;11.60;;;5.63;;
7657;SDS011;8462;53.156;8.220;2023-07-29T07:05:19;10.03;;;5.70;;
7657;SDS011;8462;53.156;8.220;2023-07-29T07:07:46;6.97;;;5.57;;
7657;SDS011;8462;53.156;8.220;2023-07-29T07:10:13;8.23;;;5.67;;
7657;SDS011;8462;53.156;8.220;2023-07-29T07:12:40;8.27;;;5.50;;
7657;SDS011;8462;53.156;8.220;2023-07-29T07:15:08;8.13;;;4.80;;
7657;SDS011;8462;53.156;8.220;2023-07-29T07:17:35;7.13;;;5.57;;
7657;SDS011;8462;53.156;8.220;2023-07-29T07:20:02;8.03;;;5.10;;
7657;SDS011;8462;53.156;8.220;2023-07-29T07:22:30;8.73;;;4.90;;
7657;SDS011;8462;53.156;8.220;2023-07-29T07:24:57;6.30;;;4.63;;
7657;SDS011;8462;53.156;8.220;2023-07-29T07:27:24;6.60;;;4.90;;
7657;SDS011;8462;53.156;8.220;2023-07-29T07:29:51;9.13;;;4.70;;
7657;SDS011;8462;53.156;8.220;2023-07-29T07:32:18;8.70;;;4.30;;
7657;SDS011;8462;53.156;8.220;2023-07-29T07:34:45;5.70;;;4.47;;
7657;SDS011;8462;53.156;8.220;2023-07-29T07:37:11;7.93;;;4.30;;
7657;SDS011;8462;53.156;8.220;2023-07-29T07:39:40;6.83;;;4.30;;
7657;SDS011;8462;53.156;8.220;2023-07-29T07:42:06;6.60;;;4.07;;
7657;SDS011;8462;53.156;8.220;2023-07-29T07:44:33;6.53;;;4.10;;
7657;SDS011;8462;53.156;8.220;2023-07-29T07:47:00;5.43;;;4.50;;
7657;SDS011;8462;53.156;8.220;2023-07-29T07:49:27;6.03;;;3.93;;
7657;SDS011;8462;53.156;8.220;2023-07-29T07:51:54;8.33;;;3.90;;
7657;SDS011;8462;53.156;8.220;2023-07-29T07:54:21;8.03;;;6.20;;
7657;SDS011;8462;53.156;8.220;2023-07-29T07:56:49;6.87;;;4.37;;
7657;SDS011;8462;53.156;8.220;2023-07-29T07:59:16;6.93;;;4.13;;
7657;SDS011;8462;53.156;8.220;2023-07-29T08:01:43;9.47;;;4.17;;
7657;SDS011;8462;53.156;8.220;2023-07-29T08:04:10;6.30;;;3.93;;
7657;SDS011;8462;53.156;8.220;2023-07-29T08:06:37;6.50;;;4.47;;
7657;SDS011;8462;53.156;8.220;2023-07-29T08:09:04;5.70;;;3.47;;
7657;SDS011;8462;53.156;8.220;2023-07-29T08:11:31;8.77;;;6.43;;
7657;SDS011;8462;53.156;8.220;2023-07-29T08:13:59;6.17;;;3.97;;
7657;SDS011;8462;53.156;8.220;2023-07-29T08:16:26;3.70;;;3.30;;
7657;SDS011;8462;53.156;8.220;2023-07-29T08:18:53;4.90;;;3.93;;
7657;SDS011;8462;53.156;8.220;2023-07-29T08:21:20;6.00;;;3.70;;
7657;SDS011;8462;53.156;8.220;2023-07-29T08:23:47;6.10;;;3.53;;
7657;SDS011;8462;53.156;8.220;2023-07-29T08:26:14;5.60;;;3.50;;
7657;SDS011;8462;53.156;8.220;2023-07-29T08:28:41;7.17;;;3.63;;
7657;SDS011;8462;53.156;8.220;2023-07-29T08:31:10;6.57;;;3.50;;
7657;SDS011;8462;53.156;8.220;2023-07-29T08:33:38;4.07;;;3.50;;
7657;SDS011;8462;53.156;8.220;2023-07-29T08:36:05;4.93;;;3.57;;
7657;SDS011;8462;53.156;8.220;2023-07-29T08:38:34;5.80;;;3.80;;
7657;SDS011;8462;53.156;8.220;2023-07-29T08:41:04;4.73;;;3.80;;
7657;SDS011;8462;53.156;8.220;2023-07-29T08:43:40;5.60;;;3.90;;
7657;SDS011;8462;53.156;8.220;2023-07-29T08:46:13;6.17;;;4.37;;
7657;SDS011;8462;53.156;8.220;2023-07-29T08:48:41;5.23;;;3.37;;
7657;SDS011;8462;53.156;8.220;2023-07-29T08:51:11;5.93;;;3.87;;
7657;SDS011;8462;53.156;8.220;2023-07-29T08:53:38;6.33;;;3.80;;
7657;SDS011;8462;53.156;8.220;2023-07-29T08:56:06;5.73;;;3.77;;
7657;SDS011;8462;53.156;8.220;2023-07-29T08:58:33;6.63;;;3.93;;
7657;SDS011;8462;53.156;8.220;2023-07-29T09:01:01;4.40;;;3.60;;
7657;SDS011;8462;53.156;8.220;2023-07-29T09:03:30;5.73;;;3.67;;
7657;SDS011;8462;53.156;8.220;2023-07-29T09:05:56;5.30;;;3.63;;
7657;SDS011;8462;53.156;8.220;2023-07-29T09:08:24;4.25;;;3.25;;
7657;SDS011;8462;53.156;8.220;2023-07-29T09:10:52;3.92;;;3.15;;
7657;SDS011;8462;53.156;8.220;2023-07-29T09:13:19;5.32;;;3.08;;
7657;SDS011;8462;53.156;8.220;2023-07-29T09:15:46;5.22;;;4.03;;
7657;SDS011;8462;53.156;8.220;2023-07-29T09:18:15;4.63;;;3.30;;
7657;SDS011;8462;53.156;8.220;2023-07-29T09:20:44;4.13;;;2.88;;
7657;SDS011;8462;53.156;8.220;2023-07-29T09:23:13;4.40;;;3.22;;
7657;SDS011;8462;53.156;8.220;2023-07-29T09:25:40;5.93;;;2.80;;
7657;SDS011;8462;53.156;8.220;2023-07-29T09:28:10;3.05;;;2.17;;
7657;SDS011;8462;53.156;8.220;2023-07-29T09:30:39;3.30;;;2.25;;
7657;SDS011;8462;53.156;8.220;2023-07-29T09:33:06;3.05;;;1.88;;
7657;SDS011;8462;53.156;8.220;2023-07-29T09:35:33;2.75;;;1.50;;
7657;SDS011;8462;53.156;8.220;2023-07-29T09:38:03;1.58;;;1.38;;
7657;SDS011;8462;53.156;8.220;2023-07-29T09:40:34;3.85;;;1.90;;
7657;SDS011;8462;53.156;8.220;2023-07-29T09:43:02;2.85;;;1.70;;
7657;SDS011;8462;53.156;8.220;2023-07-29T09:45:32;2.45;;;1.83;;
7657;SDS011;8462;53.156;8.220;2023-07-29T09:48:00;2.95;;;2.10;;
7657;SDS011;8462;53.156;8.220;2023-07-29T09:50:28;3.03;;;1.63;;
7657;SDS011;8462;53.156;8.220;2023-07-29T09:52:55;2.05;;;1.85;;
7657;SDS011;8462;53.156;8.220;2023-07-29T09:55:25;1.70;;;1.60;;
7657;SDS011;8462;53.156;8.220;2023-07-29T09:57:53;3.85;;;1.70;;
7657;SDS011;8462;53.156;8.220;2023-07-29T10:00:22;2.15;;;1.30;;
7657;SDS011;8462;53.156;8.220;2023-07-29T10:02:49;3.67;;;1.73;;
7657;SDS011;8462;53.156;8.220;2023-07-29T10:05:17;1.73;;;1.58;;
7657;SDS011;8462;53.156;8.220;2023-07-29T10:07:44;2.58;;;1.63;;
7657;SDS011;8462;53.156;8.220;2023-07-29T10:10:12;1.92;;;1.63;;
7657;SDS011;8462;53.156;8.220;2023-07-29T10:12:41;2.10;;;1.63;;
7657;SDS011;8462;53.156;8.220;2023-07-29T10:15:08;2.95;;;1.90;;
7657;SDS011;8462;53.156;8.220;2023-07-29T10:17:36;2.90;;;1.70;;
7657;SDS011;8462;53.156;8.220;2023-07-29T10:20:05;3.17;;;1.83;;
7657;SDS011;8462;53.156;8.220;2023-07-29T10:22:33;2.47;;;1.40;;
7657;SDS011;8462;53.156;8.220;2023-07-29T10:25:03;2.55;;;1.58;;
7657;SDS011;8462;53.156;8.220;2023-07-29T10:27:33;2.10;;;1.45;;
7657;SDS011;8462;53.156;8.220;2023-07-29T10:30:09;2.15;;;1.50;;
7657;SDS011;8462;53.156;8.220;2023-07-29T10:32:38;1.63;;;1.42;;
7657;SDS011;8462;53.156;8.220;2023-07-29T10:35:07;1.90;;;1.70;;
7657;SDS011;8462;53.156;8.220;2023-07-29T10:37:34;1.77;;;1.52;;
7657;SDS011;8462;53.156;8.220;2023-07-29T10:40:03;1.63;;;1.50;;
7657;SDS011;8462;53.156;8.220;2023-07-29T10:42:33;2.53;;;1.60;;
7657;SDS011;8462;53.156;8.220;2023-07-29T10:45:00;2.20;;;1.80;;
7657;SDS011;8462;53.156;8.220;2023-07-29T10:47:44;3.08;;;1.70;;
7657;SDS011;8462;53.156;8.220;2023-07-29T10:50:16;3.60;;;1.58;;
7657;SDS011;8462;53.156;8.220;2023-07-29T10:52:46;4.90;;;1.90;;
7657;SDS011;8462;53.156;8.220;2023-07-29T10:55:23;1.98;;;1.77;;
7657;SDS011;8462;53.156;8.220;2023-07-29T10:57:52;2.05;;;1.70;;
7657;SDS011;8462;53.156;8.220;2023-07-29T11:00:30;2.42;;;1.83;;
7657;SDS011;8462;53.156;8.220;2023-07-29T11:03:00;3.05;;;1.80;;
7657;SDS011;8462;53.156;8.220;2023-07-29T11:05:41;2.83;;;1.90;;
7657;SDS011;8462;53.156;8.220;2023-07-29T11:08:18;1.80;;;1.45;;
7657;SDS011;8462;53.156;8.220;2023-07-29T11:11:03;3.08;;;2.00;;
7657;SDS011;8462;53.156;8.220;2023-07-29T11:13:32;4.63;;;2.27;;
7657;SDS011;8462;53.156;8.220;2023-07-29T11:16:00;3.83;;;2.23;;
7657;SDS011;8462;53.156;8.220;2023-07-29T11:18:35;1.73;;;1.57;;
7657;SDS011;8462;53.156;8.220;2023-07-29T11:21:02;2.27;;;1.70;;
7657;SDS011;8462;53.156;8.220;2023-07-29T11:23:30;3.80;;;1.73;;
7657;SDS011;8462;53.156;8.220;2023-07-29T11:25:59;5.20;;;2.03;;
7657;SDS011;8462;53.156;8.220;2023-07-29T11:28:26;3.43;;;1.80;;
7657;SDS011;8462;53.156;8.220;2023-07-29T11:30:54;2.33;;;1.58;;
7657;SDS011;8462;53.156;8.220;2023-07-29T11:33:23;1.88;;;1.45;;
7657;SDS011;8462;53.156;8.220;2023-07-29T11:35:54;2.35;;;1.90;;
7657;SDS011;8462;53.156;8.220;2023-07-29T11:38:22;2.17;;;1.77;;
7657;SDS011;8462;53.156;8.220;2023-07-29T11:40:56;3.80;;;1.65;;
7657;SDS011;8462;53.156;8.220;2023-07-29T11:43:24;4.60;;;1.60;;
7657;SDS011;8462;53.156;8.220;2023-07-29T11:45:51;2.42;;;1.40;;
7657;SDS011;8462;53.156;8.220;2023-07-29T11:48:25;2.80;;;1.80;;
7657;SDS011;8462;53.156;8.220;2023-07-29T11:50:54;4.15;;;1.95;;
7657;SDS011;8462;53.156;8.220;2023-07-29T11:53:21;3.25;;;1.80;;
7657;SDS011;8462;53.156;8.220;2023-07-29T11:55:49;2.22;;;1.80;;
7657;SDS011;8462;53.156;8.220;2023-07-29T11:58:18;3.42;;;1.52;;
7657;SDS011;8462;53.156;8.220;2023-07-29T12:00:45;2.92;;;2.00;;
7657;SDS011;8462;53.156;8.220;2023-07-29T12:03:13;3.78;;;1.50;;
7657;SDS011;8462;53.156;8.220;2023-07-29T12:05:42;1.92;;;1.50;;
7657;SDS011;8462;53.156;8.220;2023-07-29T12:08:10;2.42;;;1.50;;
7657;SDS011;8462;53.156;8.220;2023-07-29T12:10:37;3.22;;;1.60;;
7657;SDS011;8462;53.156;8.220;2023-07-29T12:13:05;1.63;;;1.50;;
7657;SDS011;8462;53.156;8.220;2023-07-29T12:15:34;2.15;;;1.65;;
7657;SDS011;8462;53.156;8.220;2023-07-29T12:18:03;2.58;;;1.50;;
7657;SDS011;8462;53.156;8.220;2023-07-29T12:20:30;3.03;;;1.85;;
7657;SDS011;8462;53.156;8.220;2023-07-29T12:22:58;3.10;;;1.80;;
7657;SDS011;8462;53.156;8.220;2023-07-29T12:25:28;1.63;;;1.50;;
7657;SDS011;8462;53.156;8.220;2023-07-29T12:27:56;1.92;;;1.70;;
7657;SDS011;8462;53.156;8.220;2023-07-29T12:30:27;3.08;;;1.50;;
7657;SDS011;8462;53.156;8.220;2023-07-29T12:32:54;2.92;;;1.60;;
7657;SDS011;8462;53.156;8.220;2023-07-29T12:35:21;5.03;;;2.00;;
7657;SDS011;8462;53.156;8.220;2023-07-29T12:37:57;1.52;;;1.42;;
7657;SDS011;8462;53.156;8.220;2023-07-29T12:40:24;2.30;;;1.60;;
7657;SDS011;8462;53.156;8.220;2023-07-29T12:42:53;2.20;;;1.50;;
7657;SDS011;8462;53.156;8.220;2023-07-29T12:45:22;1.70;;;1.60;;
7657;SDS011;8462;53.156;8.220;2023-07-29T12:47:51;1.90;;;1.30;;
7657;SDS011;8462;53.156;8.220;2023-07-29T12:50:19;3.22;;;1.17;;
7657;SDS011;8462;53.156;8.220;2023-07-29T12:52:46;3.53;;;1.67;;
7657;SDS011;8462;53.156;8.220;2023-07-29T12:55:15;2.45;;;1.42;;
7657;SDS011;8462;53.156;8.220;2023-07-29T12:57:46;2.08;;;1.30;;
7657;SDS011;8462;53.156;8.220;2023-07-29T13:00:14;2.35;;;1.15;;
7657;SDS011;8462;53.156;8.220;2023-07-29T13:02:41;2.47;;;1.27;;
7657;SDS011;8462;53.156;8.220;2023-07-29T13:05:09;1.63;;;1.48;;
7657;SDS011;8462;53.156;8.220;2023-07-29T13:07:37;1.30;;;1.08;;
7657;SDS011;8462;53.156;8.220;2023-07-29T13:10:08;7.30;;;5.50;;
7657;SDS011;8462;53.156;8.220;2023-07-29T13:12:35;1.92;;;1.40;;
7657;SDS011;8462;53.156;8.220;2023-07-29T13:15:02;2.78;;;1.85;;
7657;SDS011;8462;53.156;8.220;2023-07-29T13:17:31;4.47;;;1.33;;
7657;SDS011;8462;53.156;8.220;2023-07-29T13:20:01;2.22;;;1.33;;
7657;SDS011;8462;53.156;8.220;2023-07-29T13:22:28;2.38;;;1.20;;
7657;SDS011;8462;53.156;8.220;2023-07-29T13:24:55;2.08;;;1.13;;
7657;SDS011;8462;53.156;8.220;2023-07-29T13:27:22;2.70;;;1.33;;
7657;SDS011;8462;53.156;8.220;2023-07-29T13:29:52;2.63;;;1.65;;
7657;SDS011;8462;53.156;8.220;2023-07-29T13:32:18;1.95;;;1.30;;
7657;SDS011;8462;53.156;8.220;2023-07-29T13:34:47;2.08;;;1.38;;
7657;SDS011;8462;53.156;8.220;2023-07-29T13:37:14;2.83;;;1.40;;
7657;SDS011;8462;53.156;8.220;2023-07-29T13:39:41;2.05;;;1.50;;
7657;SDS011;8462;53.156;8.220;2023-07-29T13:42:08;2.33;;;1.40;;
7657;SDS011;8462;53.156;8.220;2023-07-29T13:44:38;2.53;;;1.55;;
7657;SDS011;8462;53.156;8.220;2023-07-29T13:47:06;2.78;;;1.60;;
7657;SDS011;8462;53.156;8.220;2023-07-29T13:49:35;2.97;;;1.60;;
7657;SDS011;8462;53.156;8.220;2023-07-29T13:52:04;2.85;;;1.58;;
7657;SDS011;8462;53.156;8.220;2023-07-29T13:54:33;3.47;;;1.88;;
7657;SDS011;8462;53.156;8.220;2023-07-29T13:57:00;7.13;;;1.98;;
7657;SDS011;8462;53.156;8.220;2023-07-29T13:59:27;1.73;;;1.63;;
7657;SDS011;8462;53.156;8.220;2023-07-29T14:01:55;3.00;;;1.77;;
7657;SDS011;8462;53.156;8.220;2023-07-29T14:04:24;3.57;;;1.90;;
7657;SDS011;8462;53.156;8.220;2023-07-29T14:06:51;3.13;;;1.73;;
7657;SDS011;8462;53.156;8.220;2023-07-29T14:09:21;3.03;;;2.00;;
7657;SDS011;8462;53.156;8.220;2023-07-29T14:11:48;2.20;;;1.80;;
7657;SDS011;8462;53.156;8.220;2023-07-29T14:14:16;3.27;;;2.00;;
7657;SDS011;8462;53.156;8.220;2023-07-29T14:16:46;3.17;;;2.20;;
7657;SDS011;8462;53.156;8.220;2023-07-29T14:19:14;3.57;;;2.33;;
7657;SDS011;8462;53.156;8.220;2023-07-29T14:21:42;2.63;;;2.00;;
7657;SDS011;8462;53.156;8.220;2023-07-29T14:24:09;6.63;;;3.83;;
7657;SDS011;8462;53.156;8.220;2023-07-29T14:26:38;3.33;;;2.55;;
7657;SDS011;8462;53.156;8.220;2023-07-29T14:29:05;7.07;;;2.42;;
7657;SDS011;8462;53.156;8.220;2023-07-29T14:31:32;2.45;;;1.80;;
7657;SDS011;8462;53.156;8.220;2023-07-29T14:33:59;2.40;;;2.15;;
7657;SDS011;8462;53.156;8.220;2023-07-29T14:36:26;3.97;;;2.58;;
7657;SDS011;8462;53.156;8.220;2023-07-29T14:38:53;3.00;;;2.20;;
7657;SDS011;8462;53.156;8.220;2023-07-29T14:41:20;2.78;;;1.90;;
7657;SDS011;8462;53.156;8.220;2023-07-29T14:43:53;5.75;;;2.30;;
7657;SDS011;8462;53.156;8.220;2023-07-29T14:46:20;4.50;;;2.05;;
7657;SDS011;8462;53.156;8.220;2023-07-29T14:48:47;4.53;;;2.47;;
7657;SDS011;8462;53.156;8.220;2023-07-29T14:51:14;4.20;;;2.05;;
7657;SDS011;8462;53.156;8.220;2023-07-29T14:53:41;1.95;;;1.80;;
7657;SDS011;8462;53.156;8.220;2023-07-29T14:56:08;3.08;;;2.28;;
7657;SDS011;8462;53.156;8.220;2023-07-29T14:58:35;2.42;;;2.10;;
7657;SDS011;8462;53.156;8.220;2023-07-29T15:01:03;2.28;;;2.03;;
7657;SDS011;8462;53.156;8.220;2023-07-29T15:03:30;4.07;;;3.28;;
7657;SDS011;8462;53.156;8.220;2023-07-29T15:05:57;2.20;;;1.83;;
7657;SDS011;8462;53.156;8.220;2023-07-29T15:08:25;5.65;;;3.03;;
7657;SDS011;8462;53.156;8.220;2023-07-29T15:10:57;2.90;;;2.58;;
7657;SDS011;8462;53.156;8.220;2023-07-29T15:13:24;5.43;;;2.25;;